sensor_id;sensor_type;location;lat;lon;timestamp;P1;durP1;ratioP1;P2;durP2;ratioP2
23410;SDS011;11878;51.774;7.220;2023-02-22T00:01:18;55.93;;;18.13;;
23410;SDS011;11878;51.774;7.220;2023-02-22T00:04:28;48.13;;;16.57;;
23410;SDS011;11878;51.774;7.220;2023-02-22T00:07:30;50.80;;;15.07;;
23410;SDS011;11878;51.774;7.220;2023-02-22T00:10:31;47.30;;;16.67;;
23410;SDS011;11878;51.774;7.220;2023-02-22T00:13:34;54.50;;;18.00;;
23410;SDS011;11878;51.774;7.220;2023-02-22T00:16:37;52.10;;;18.03;;
23410;SDS011;11878;51.774;7.220;2023-02-22T00:19:39;55.93;;;19.73;;
23410;SDS011;11878;51.774;7.220;2023-02-22T00:22:41;53.10;;;17.70;;
23410;SDS011;11878;51.774;7.220;2023-02-22T00:25:47;47.00;;;15.80;;
23410;SDS011;11878;51.774;7.220;2023-02-22T00:28:51;51.80;;;17.23;;
23410;SDS011;11878;51.774;7.220;2023-02-22T00:31:53;60.23;;;18.23;;
23410;SDS011;11878;51.774;7.220;2023-02-22T00:34:55;55.87;;;18.10;;
23410;SDS011;11878;51.774;7.220;2023-02-22T00:37:58;59.83;;;18.90;;
23410;SDS011;11878;51.774;7.220;2023-02-22T00:41:01;45.90;;;15.90;;
23410;SDS011;11878;51.774;7.220;2023-02-22T00:44:03;44.83;;;15.63;;
23410;SDS011;11878;51.774;7.220;2023-02-22T00:47:05;48.37;;;16.67;;
23410;SDS011;11878;51.774;7.220;2023-02-22T00:50:07;41.80;;;14.53;;
23410;SDS011;11878;51.774;7.220;2023-02-22T00:53:10;48.23;;;15.80;;
23410;SDS011;11878;51.774;7.220;2023-02-22T00:56:12;43.47;;;17.37;;
23410;SDS011;11878;51.774;7.220;2023-02-22T00:59:14;50.47;;;16.63;;
23410;SDS011;11878;51.774;7.220;2023-02-22T01:02:16;61.37;;;18.63;;
23410;SDS011;11878;51.774;7.220;2023-02-22T01:05:22;49.47;;;16.47;;
23410;SDS011;11878;51.774;7.220;2023-02-22T01:08:27;48.00;;;15.90;;
23410;SDS011;11878;51.774;7.220;2023-02-22T01:11:31;56.67;;;17.97;;
23410;SDS011;11878;51.774;7.220;2023-02-22T01:14:34;55.37;;;17.03;;
23410;SDS011;11878;51.774;7.220;2023-02-22T01:17:37;56.43;;;19.47;;
23410;SDS011;11878;51.774;7.220;2023-02-22T01:20:39;50.70;;;17.00;;
23410;SDS011;11878;51.774;7.220;2023-02-22T01:23:44;57.87;;;18.10;;
23410;SDS011;11878;51.774;7.220;2023-02-22T01:26:48;48.70;;;15.87;;
23410;SDS011;11878;51.774;7.220;2023-02-22T01:29:51;44.50;;;14.90;;
23410;SDS011;11878;51.774;7.220;2023-02-22T01:32:53;49.50;;;16.23;;
23410;SDS011;11878;51.774;7.220;2023-02-22T01:35:56;46.17;;;15.40;;
23410;SDS011;11878;51.774;7.220;2023-02-22T01:38:57;46.37;;;16.03;;
23410;SDS011;11878;51.774;7.220;2023-02-22T01:42:00;52.07;;;16.33;;
23410;SDS011;11878;51.774;7.220;2023-02-22T01:48:37;44.43;;;14.07;;
23410;SDS011;11878;51.774;7.220;2023-02-22T01:51:47;34.23;;;12.40;;
23410;SDS011;11878;51.774;7.220;2023-02-22T01:54:54;37.33;;;12.50;;
23410;SDS011;11878;51.774;7.220;2023-02-22T01:57:58;41.00;;;13.67;;
23410;SDS011;11878;51.774;7.220;2023-02-22T02:01:00;44.47;;;13.67;;
23410;SDS011;11878;51.774;7.220;2023-02-22T02:04:03;45.40;;;15.00;;
23410;SDS011;11878;51.774;7.220;2023-02-22T02:07:08;45.20;;;14.80;;
23410;SDS011;11878;51.774;7.220;2023-02-22T02:10:13;38.33;;;13.87;;
23410;SDS011;11878;51.774;7.220;2023-02-22T02:13:15;43.20;;;12.43;;
23410;SDS011;11878;51.774;7.220;2023-02-22T02:16:17;38.30;;;13.87;;
23410;SDS011;11878;51.774;7.220;2023-02-22T02:19:22;35.30;;;12.63;;
23410;SDS011;11878;51.774;7.220;2023-02-22T02:22:48;46.90;;;15.20;;
23410;SDS011;11878;51.774;7.220;2023-02-22T02:32:35;66.60;;;20.03;;
23410;SDS011;11878;51.774;7.220;2023-02-22T02:35:46;63.13;;;19.93;;
23410;SDS011;11878;51.774;7.220;2023-02-22T02:42:15;75.97;;;20.60;;
23410;SDS011;11878;51.774;7.220;2023-02-22T02:45:32;81.97;;;23.67;;
23410;SDS011;11878;51.774;7.220;2023-02-22T02:48:43;76.73;;;22.27;;
23410;SDS011;11878;51.774;7.220;2023-02-22T02:51:51;77.87;;;23.20;;
23410;SDS011;11878;51.774;7.220;2023-02-22T02:54:56;86.30;;;23.37;;
23410;SDS011;11878;51.774;7.220;2023-02-22T02:57:58;69.73;;;21.43;;
23410;SDS011;11878;51.774;7.220;2023-02-22T03:01:01;66.53;;;19.67;;
23410;SDS011;11878;51.774;7.220;2023-02-22T03:04:17;95.17;;;21.43;;
23410;SDS011;11878;51.774;7.220;2023-02-22T03:07:27;84.27;;;23.07;;
23410;SDS011;11878;51.774;7.220;2023-02-22T03:17:16;80.57;;;20.60;;
23410;SDS011;11878;51.774;7.220;2023-02-22T03:20:33;66.60;;;21.53;;
23410;SDS011;11878;51.774;7.220;2023-02-22T03:23:45;69.20;;;20.73;;
23410;SDS011;11878;51.774;7.220;2023-02-22T03:30:50;77.73;;;21.47;;
23410;SDS011;11878;51.774;7.220;2023-02-22T03:33:59;222.27;;;28.03;;
23410;SDS011;11878;51.774;7.220;2023-02-22T03:37:19;92.77;;;23.43;;
23410;SDS011;11878;51.774;7.220;2023-02-22T03:40:36;107.37;;;22.90;;
23410;SDS011;11878;51.774;7.220;2023-02-22T03:43:45;95.43;;;20.80;;
23410;SDS011;11878;51.774;7.220;2023-02-22T03:46:51;111.00;;;22.80;;
23410;SDS011;11878;51.774;7.220;2023-02-22T03:50:00;92.97;;;23.60;;
23410;SDS011;11878;51.774;7.220;2023-02-22T03:53:16;100.30;;;22.57;;
23410;SDS011;11878;51.774;7.220;2023-02-22T03:56:22;81.37;;;23.20;;
23410;SDS011;11878;51.774;7.220;2023-02-22T03:59:36;76.70;;;22.13;;
23410;SDS011;11878;51.774;7.220;2023-02-22T04:02:40;83.57;;;22.17;;
23410;SDS011;11878;51.774;7.220;2023-02-22T04:05:47;78.37;;;20.67;;
23410;SDS011;11878;51.774;7.220;2023-02-22T04:08:49;102.57;;;20.73;;
23410;SDS011;11878;51.774;7.220;2023-02-22T04:11:51;100.67;;;21.40;;
23410;SDS011;11878;51.774;7.220;2023-02-22T04:14:53;75.97;;;18.27;;
23410;SDS011;11878;51.774;7.220;2023-02-22T04:17:56;85.77;;;20.90;;
23410;SDS011;11878;51.774;7.220;2023-02-22T04:20:59;98.73;;;19.33;;
23410;SDS011;11878;51.774;7.220;2023-02-22T04:24:12;54.00;;;16.67;;
23410;SDS011;11878;51.774;7.220;2023-02-22T04:27:16;60.10;;;17.30;;
23410;SDS011;11878;51.774;7.220;2023-02-22T04:30:17;71.50;;;18.27;;
23410;SDS011;11878;51.774;7.220;2023-02-22T04:33:20;70.83;;;15.77;;
23410;SDS011;11878;51.774;7.220;2023-02-22T04:36:22;75.47;;;18.53;;
23410;SDS011;11878;51.774;7.220;2023-02-22T04:39:27;49.63;;;16.00;;
23410;SDS011;11878;51.774;7.220;2023-02-22T04:42:28;67.33;;;16.00;;
23410;SDS011;11878;51.774;7.220;2023-02-22T04:45:30;53.00;;;16.03;;
23410;SDS011;11878;51.774;7.220;2023-02-22T04:48:32;52.77;;;16.23;;
23410;SDS011;11878;51.774;7.220;2023-02-22T04:51:34;76.10;;;17.90;;
23410;SDS011;11878;51.774;7.220;2023-02-22T04:54:42;84.23;;;15.63;;
23410;SDS011;11878;51.774;7.220;2023-02-22T04:57:44;79.20;;;17.37;;
23410;SDS011;11878;51.774;7.220;2023-02-22T05:00:46;83.57;;;16.13;;
23410;SDS011;11878;51.774;7.220;2023-02-22T05:03:49;59.10;;;15.60;;
23410;SDS011;11878;51.774;7.220;2023-02-22T05:06:51;65.17;;;16.00;;
23410;SDS011;11878;51.774;7.220;2023-02-22T05:09:55;51.63;;;15.80;;
23410;SDS011;11878;51.774;7.220;2023-02-22T05:12:57;51.13;;;16.83;;
23410;SDS011;11878;51.774;7.220;2023-02-22T05:15:58;57.77;;;17.47;;
23410;SDS011;11878;51.774;7.220;2023-02-22T05:19:00;60.53;;;18.73;;
23410;SDS011;11878;51.774;7.220;2023-02-22T05:22:02;63.53;;;15.70;;
23410;SDS011;11878;51.774;7.220;2023-02-22T05:25:05;67.93;;;17.50;;
23410;SDS011;11878;51.774;7.220;2023-02-22T05:28:10;64.50;;;17.47;;
23410;SDS011;11878;51.774;7.220;2023-02-22T05:31:13;99.63;;;17.67;;
23410;SDS011;11878;51.774;7.220;2023-02-22T05:34:16;58.03;;;16.67;;
23410;SDS011;11878;51.774;7.220;2023-02-22T05:37:18;50.40;;;15.40;;
23410;SDS011;11878;51.774;7.220;2023-02-22T05:40:20;79.07;;;16.73;;
23410;SDS011;11878;51.774;7.220;2023-02-22T05:43:23;81.37;;;16.17;;
23410;SDS011;11878;51.774;7.220;2023-02-22T05:46:25;104.50;;;16.53;;
23410;SDS011;11878;51.774;7.220;2023-02-22T05:49:27;59.37;;;17.27;;
23410;SDS011;11878;51.774;7.220;2023-02-22T05:52:29;56.80;;;15.43;;
23410;SDS011;11878;51.774;7.220;2023-02-22T05:55:30;60.83;;;15.40;;
23410;SDS011;11878;51.774;7.220;2023-02-22T05:58:33;56.60;;;14.37;;
23410;SDS011;11878;51.774;7.220;2023-02-22T06:01:34;50.07;;;15.27;;
23410;SDS011;11878;51.774;7.220;2023-02-22T06:04:36;62.70;;;15.97;;
23410;SDS011;11878;51.774;7.220;2023-02-22T06:07:38;43.80;;;14.37;;
23410;SDS011;11878;51.774;7.220;2023-02-22T06:10:40;60.60;;;18.10;;
23410;SDS011;11878;51.774;7.220;2023-02-22T06:13:41;74.90;;;16.97;;
23410;SDS011;11878;51.774;7.220;2023-02-22T06:16:53;51.47;;;15.10;;
23410;SDS011;11878;51.774;7.220;2023-02-22T06:19:56;57.60;;;14.73;;
23410;SDS011;11878;51.774;7.220;2023-02-22T06:22:58;47.20;;;14.27;;
23410;SDS011;11878;51.774;7.220;2023-02-22T06:26:00;44.57;;;13.73;;
23410;SDS011;11878;51.774;7.220;2023-02-22T06:29:02;51.60;;;13.47;;
23410;SDS011;11878;51.774;7.220;2023-02-22T06:32:06;38.43;;;14.80;;
23410;SDS011;11878;51.774;7.220;2023-02-22T06:35:07;41.43;;;14.20;;
23410;SDS011;11878;51.774;7.220;2023-02-22T06:38:10;35.63;;;12.67;;
23410;SDS011;11878;51.774;7.220;2023-02-22T06:41:11;37.60;;;13.23;;
23410;SDS011;11878;51.774;7.220;2023-02-22T06:44:16;55.50;;;15.40;;
23410;SDS011;11878;51.774;7.220;2023-02-22T06:47:17;46.10;;;15.23;;
23410;SDS011;11878;51.774;7.220;2023-02-22T06:50:23;37.10;;;12.10;;
23410;SDS011;11878;51.774;7.220;2023-02-22T06:53:27;51.43;;;17.10;;
23410;SDS011;11878;51.774;7.220;2023-02-22T06:56:28;43.03;;;14.30;;
23410;SDS011;11878;51.774;7.220;2023-02-22T06:59:30;47.83;;;15.13;;
23410;SDS011;11878;51.774;7.220;2023-02-22T07:02:32;43.20;;;14.90;;
23410;SDS011;11878;51.774;7.220;2023-02-22T07:05:33;46.50;;;14.90;;
23410;SDS011;11878;51.774;7.220;2023-02-22T07:08:35;45.60;;;15.50;;
23410;SDS011;11878;51.774;7.220;2023-02-22T07:11:38;48.30;;;14.37;;
23410;SDS011;11878;51.774;7.220;2023-02-22T07:14:40;65.63;;;16.33;;
23410;SDS011;11878;51.774;7.220;2023-02-22T07:17:41;42.23;;;13.07;;
23410;SDS011;11878;51.774;7.220;2023-02-22T07:20:43;42.40;;;14.97;;
23410;SDS011;11878;51.774;7.220;2023-02-22T07:23:52;39.93;;;13.87;;
23410;SDS011;11878;51.774;7.220;2023-02-22T07:26:55;43.33;;;13.67;;
23410;SDS011;11878;51.774;7.220;2023-02-22T07:29:57;33.97;;;12.30;;
23410;SDS011;11878;51.774;7.220;2023-02-22T07:33:01;34.43;;;14.63;;
23410;SDS011;11878;51.774;7.220;2023-02-22T07:36:05;35.37;;;13.63;;
23410;SDS011;11878;51.774;7.220;2023-02-22T07:39:07;39.43;;;14.70;;
23410;SDS011;11878;51.774;7.220;2023-02-22T07:42:09;32.90;;;13.40;;
23410;SDS011;11878;51.774;7.220;2023-02-22T07:45:10;34.83;;;13.73;;
23410;SDS011;11878;51.774;7.220;2023-02-22T07:48:12;36.60;;;13.40;;
23410;SDS011;11878;51.774;7.220;2023-02-22T07:51:17;33.07;;;13.23;;
23410;SDS011;11878;51.774;7.220;2023-02-22T07:54:20;33.23;;;13.60;;
23410;SDS011;11878;51.774;7.220;2023-02-22T07:57:23;38.47;;;14.00;;
23410;SDS011;11878;51.774;7.220;2023-02-22T08:00:26;32.07;;;11.93;;
23410;SDS011;11878;51.774;7.220;2023-02-22T08:03:30;33.67;;;12.10;;
23410;SDS011;11878;51.774;7.220;2023-02-22T08:06:38;26.23;;;11.43;;
23410;SDS011;11878;51.774;7.220;2023-02-22T08:09:40;36.30;;;12.20;;
23410;SDS011;11878;51.774;7.220;2023-02-22T08:12:41;35.90;;;13.47;;
23410;SDS011;11878;51.774;7.220;2023-02-22T08:15:43;24.83;;;10.93;;
23410;SDS011;11878;51.774;7.220;2023-02-22T08:18:47;23.27;;;10.47;;
23410;SDS011;11878;51.774;7.220;2023-02-22T08:21:48;28.87;;;11.60;;
23410;SDS011;11878;51.774;7.220;2023-02-22T08:24:50;31.60;;;11.57;;
23410;SDS011;11878;51.774;7.220;2023-02-22T08:27:58;35.87;;;12.57;;
23410;SDS011;11878;51.774;7.220;2023-02-22T08:31:01;31.30;;;11.97;;
23410;SDS011;11878;51.774;7.220;2023-02-22T08:34:03;31.67;;;12.63;;
23410;SDS011;11878;51.774;7.220;2023-02-22T08:37:05;22.83;;;9.93;;
23410;SDS011;11878;51.774;7.220;2023-02-22T08:40:07;26.77;;;12.03;;
23410;SDS011;11878;51.774;7.220;2023-02-22T08:43:09;22.90;;;9.93;;
23410;SDS011;11878;51.774;7.220;2023-02-22T08:46:11;26.40;;;10.10;;
23410;SDS011;11878;51.774;7.220;2023-02-22T08:49:12;26.07;;;11.23;;
23410;SDS011;11878;51.774;7.220;2023-02-22T08:52:14;23.53;;;9.87;;
23410;SDS011;11878;51.774;7.220;2023-02-22T08:55:18;19.53;;;9.23;;
23410;SDS011;11878;51.774;7.220;2023-02-22T08:58:23;19.93;;;8.77;;
23410;SDS011;11878;51.774;7.220;2023-02-22T09:01:25;18.83;;;9.00;;
23410;SDS011;11878;51.774;7.220;2023-02-22T09:04:33;21.13;;;8.83;;
23410;SDS011;11878;51.774;7.220;2023-02-22T09:07:35;22.30;;;9.20;;
23410;SDS011;11878;51.774;7.220;2023-02-22T09:10:37;18.57;;;8.57;;
23410;SDS011;11878;51.774;7.220;2023-02-22T09:13:39;19.80;;;8.87;;
23410;SDS011;11878;51.774;7.220;2023-02-22T09:16:41;21.77;;;8.40;;
23410;SDS011;11878;51.774;7.220;2023-02-22T09:19:45;22.70;;;9.03;;
23410;SDS011;11878;51.774;7.220;2023-02-22T09:22:47;20.93;;;8.93;;
23410;SDS011;11878;51.774;7.220;2023-02-22T09:25:49;17.80;;;8.90;;
23410;SDS011;11878;51.774;7.220;2023-02-22T09:28:51;17.37;;;8.63;;
23410;SDS011;11878;51.774;7.220;2023-02-22T09:31:53;18.53;;;8.43;;
23410;SDS011;11878;51.774;7.220;2023-02-22T09:34:56;17.23;;;8.23;;
23410;SDS011;11878;51.774;7.220;2023-02-22T09:37:58;20.67;;;9.00;;
23410;SDS011;11878;51.774;7.220;2023-02-22T09:41:12;19.63;;;8.97;;
23410;SDS011;11878;51.774;7.220;2023-02-22T09:47:46;19.83;;;9.80;;
23410;SDS011;11878;51.774;7.220;2023-02-22T09:50:52;28.47;;;12.03;;
23410;SDS011;11878;51.774;7.220;2023-02-22T09:53:59;21.27;;;10.43;;
23410;SDS011;11878;51.774;7.220;2023-02-22T09:57:06;21.43;;;10.07;;
23410;SDS011;11878;51.774;7.220;2023-02-22T10:00:17;19.33;;;9.67;;
23410;SDS011;11878;51.774;7.220;2023-02-22T10:03:23;22.00;;;9.57;;
23410;SDS011;11878;51.774;7.220;2023-02-22T10:06:30;24.70;;;11.87;;
23410;SDS011;11878;51.774;7.220;2023-02-22T10:09:34;25.37;;;10.80;;
23410;SDS011;11878;51.774;7.220;2023-02-22T10:15:56;25.47;;;11.83;;
23410;SDS011;11878;51.774;7.220;2023-02-22T10:19:21;28.57;;;11.80;;
23410;SDS011;11878;51.774;7.220;2023-02-22T10:25:47;24.80;;;11.70;;
23410;SDS011;11878;51.774;7.220;2023-02-22T10:28:59;26.40;;;12.57;;
23410;SDS011;11878;51.774;7.220;2023-02-22T10:32:20;29.20;;;12.23;;
23410;SDS011;11878;51.774;7.220;2023-02-22T10:35:29;24.17;;;11.60;;
23410;SDS011;11878;51.774;7.220;2023-02-22T10:38:34;26.37;;;12.00;;
23410;SDS011;11878;51.774;7.220;2023-02-22T10:41:37;26.27;;;11.57;;
23410;SDS011;11878;51.774;7.220;2023-02-22T10:44:45;29.97;;;12.60;;
23410;SDS011;11878;51.774;7.220;2023-02-22T10:47:48;25.10;;;11.70;;
23410;SDS011;11878;51.774;7.220;2023-02-22T10:50:51;28.77;;;12.87;;
23410;SDS011;11878;51.774;7.220;2023-02-22T10:57:17;27.30;;;12.03;;
23410;SDS011;11878;51.774;7.220;2023-02-22T11:00:31;29.00;;;12.87;;
23410;SDS011;11878;51.774;7.220;2023-02-22T11:03:37;28.70;;;13.20;;
23410;SDS011;11878;51.774;7.220;2023-02-22T11:06:40;27.47;;;14.60;;
23410;SDS011;11878;51.774;7.220;2023-02-22T11:10:05;32.17;;;13.00;;
23410;SDS011;11878;51.774;7.220;2023-02-22T11:13:16;31.50;;;13.03;;
23410;SDS011;11878;51.774;7.220;2023-02-22T11:16:19;26.00;;;13.13;;
23410;SDS011;11878;51.774;7.220;2023-02-22T11:19:32;25.77;;;12.27;;
23410;SDS011;11878;51.774;7.220;2023-02-22T11:22:38;30.43;;;15.13;;
23410;SDS011;11878;51.774;7.220;2023-02-22T11:25:42;38.00;;;16.97;;
23410;SDS011;11878;51.774;7.220;2023-02-22T11:28:47;31.20;;;13.73;;
23410;SDS011;11878;51.774;7.220;2023-02-22T11:31:56;29.63;;;13.30;;
23410;SDS011;11878;51.774;7.220;2023-02-22T11:35:15;31.63;;;13.93;;
23410;SDS011;11878;51.774;7.220;2023-02-22T11:41:27;37.90;;;16.93;;
23410;SDS011;11878;51.774;7.220;2023-02-22T11:44:31;23.33;;;12.30;;
23410;SDS011;11878;51.774;7.220;2023-02-22T11:47:33;26.40;;;12.27;;
23410;SDS011;11878;51.774;7.220;2023-02-22T11:50:38;28.53;;;12.70;;
23410;SDS011;11878;51.774;7.220;2023-02-22T12:00:47;23.37;;;11.43;;
23410;SDS011;11878;51.774;7.220;2023-02-22T12:16:51;22.90;;;10.97;;
23410;SDS011;11878;51.774;7.220;2023-02-22T12:26:58;21.13;;;10.63;;
23410;SDS011;11878;51.774;7.220;2023-02-22T12:30:10;23.13;;;10.90;;
23410;SDS011;11878;51.774;7.220;2023-02-22T12:33:26;24.00;;;11.50;;
23410;SDS011;11878;51.774;7.220;2023-02-22T12:36:42;23.70;;;11.13;;
23410;SDS011;11878;51.774;7.220;2023-02-22T12:39:51;23.17;;;11.03;;
23410;SDS011;11878;51.774;7.220;2023-02-22T12:43:23;25.33;;;11.83;;
23410;SDS011;11878;51.774;7.220;2023-02-22T12:46:33;21.10;;;12.60;;
23410;SDS011;11878;51.774;7.220;2023-02-22T12:49:51;23.50;;;11.67;;
23410;SDS011;11878;51.774;7.220;2023-02-22T12:56:25;22.57;;;11.17;;
23410;SDS011;11878;51.774;7.220;2023-02-22T12:59:37;22.73;;;12.93;;
23410;SDS011;11878;51.774;7.220;2023-02-22T13:03:03;20.40;;;11.23;;
23410;SDS011;11878;51.774;7.220;2023-02-22T13:06:35;19.30;;;9.70;;
23410;SDS011;11878;51.774;7.220;2023-02-22T13:10:07;20.93;;;11.53;;
23410;SDS011;11878;51.774;7.220;2023-02-22T13:13:32;23.63;;;11.67;;
23410;SDS011;11878;51.774;7.220;2023-02-22T13:17:00;24.57;;;11.60;;
23410;SDS011;11878;51.774;7.220;2023-02-22T13:26:44;22.97;;;12.47;;
23410;SDS011;11878;51.774;7.220;2023-02-22T13:30:14;19.83;;;11.47;;
23410;SDS011;11878;51.774;7.220;2023-02-22T13:33:42;24.17;;;12.47;;
23410;SDS011;11878;51.774;7.220;2023-02-22T13:37:06;21.50;;;10.83;;
23410;SDS011;11878;51.774;7.220;2023-02-22T13:43:39;22.80;;;11.40;;
23410;SDS011;11878;51.774;7.220;2023-02-22T13:53:37;24.03;;;10.73;;
23410;SDS011;11878;51.774;7.220;2023-02-22T13:56:50;21.07;;;10.77;;
23410;SDS011;11878;51.774;7.220;2023-02-22T14:03:27;23.90;;;11.10;;
23410;SDS011;11878;51.774;7.220;2023-02-22T14:06:36;20.37;;;9.07;;
23410;SDS011;11878;51.774;7.220;2023-02-22T14:09:49;19.43;;;10.17;;
23410;SDS011;11878;51.774;7.220;2023-02-22T14:12:52;17.60;;;8.47;;
23410;SDS011;11878;51.774;7.220;2023-02-22T14:19:13;17.37;;;9.10;;
23410;SDS011;11878;51.774;7.220;2023-02-22T14:22:24;21.20;;;9.20;;
23410;SDS011;11878;51.774;7.220;2023-02-22T14:25:29;24.03;;;9.97;;
23410;SDS011;11878;51.774;7.220;2023-02-22T14:32:06;19.90;;;9.37;;
23410;SDS011;11878;51.774;7.220;2023-02-22T14:35:14;25.30;;;10.37;;
23410;SDS011;11878;51.774;7.220;2023-02-22T14:38:28;21.57;;;9.37;;
23410;SDS011;11878;51.774;7.220;2023-02-22T14:41:30;23.30;;;10.47;;
23410;SDS011;11878;51.774;7.220;2023-02-22T14:44:36;19.27;;;9.43;;
23410;SDS011;11878;51.774;7.220;2023-02-22T14:47:47;17.50;;;8.93;;
23410;SDS011;11878;51.774;7.220;2023-02-22T14:51:05;21.60;;;9.50;;
23410;SDS011;11878;51.774;7.220;2023-02-22T14:54:38;20.23;;;9.37;;
23410;SDS011;11878;51.774;7.220;2023-02-22T14:58:03;19.97;;;8.73;;
23410;SDS011;11878;51.774;7.220;2023-02-22T15:01:26;17.27;;;8.23;;
23410;SDS011;11878;51.774;7.220;2023-02-22T15:04:50;17.70;;;7.97;;
23410;SDS011;11878;51.774;7.220;2023-02-22T15:08:00;18.80;;;8.37;;
23410;SDS011;11878;51.774;7.220;2023-02-22T15:11:03;21.30;;;9.57;;
23410;SDS011;11878;51.774;7.220;2023-02-22T15:14:15;27.70;;;8.70;;
23410;SDS011;11878;51.774;7.220;2023-02-22T15:17:26;18.53;;;9.20;;
23410;SDS011;11878;51.774;7.220;2023-02-22T15:20:28;21.87;;;9.27;;
23410;SDS011;11878;51.774;7.220;2023-02-22T15:23:37;29.70;;;10.07;;
23410;SDS011;11878;51.774;7.220;2023-02-22T15:26:43;20.10;;;9.07;;
23410;SDS011;11878;51.774;7.220;2023-02-22T15:30:13;19.10;;;9.00;;
23410;SDS011;11878;51.774;7.220;2023-02-22T15:33:19;18.53;;;8.70;;
23410;SDS011;11878;51.774;7.220;2023-02-22T15:36:25;18.13;;;8.93;;
23410;SDS011;11878;51.774;7.220;2023-02-22T15:39:32;15.53;;;7.67;;
23410;SDS011;11878;51.774;7.220;2023-02-22T15:42:41;16.73;;;8.23;;
23410;SDS011;11878;51.774;7.220;2023-02-22T15:45:44;19.43;;;8.87;;
23410;SDS011;11878;51.774;7.220;2023-02-22T15:49:02;18.93;;;8.90;;
23410;SDS011;11878;51.774;7.220;2023-02-22T15:52:21;19.70;;;8.83;;
23410;SDS011;11878;51.774;7.220;2023-02-22T15:55:47;22.10;;;8.23;;
23410;SDS011;11878;51.774;7.220;2023-02-22T15:58:49;18.57;;;9.23;;
23410;SDS011;11878;51.774;7.220;2023-02-22T16:01:51;23.90;;;8.97;;
23410;SDS011;11878;51.774;7.220;2023-02-22T16:04:58;19.13;;;8.70;;
23410;SDS011;11878;51.774;7.220;2023-02-22T16:08:02;17.17;;;8.50;;
23410;SDS011;11878;51.774;7.220;2023-02-22T16:11:23;21.00;;;9.07;;
23410;SDS011;11878;51.774;7.220;2023-02-22T16:14:38;20.87;;;9.50;;
23410;SDS011;11878;51.774;7.220;2023-02-22T16:17:42;24.07;;;9.33;;
23410;SDS011;11878;51.774;7.220;2023-02-22T16:21:04;22.00;;;10.17;;
23410;SDS011;11878;51.774;7.220;2023-02-22T16:24:13;25.30;;;10.40;;
23410;SDS011;11878;51.774;7.220;2023-02-22T16:27:26;24.00;;;9.90;;
23410;SDS011;11878;51.774;7.220;2023-02-22T16:30:29;22.13;;;9.70;;
23410;SDS011;11878;51.774;7.220;2023-02-22T16:33:36;26.60;;;10.53;;
23410;SDS011;11878;51.774;7.220;2023-02-22T16:36:41;19.33;;;9.67;;
23410;SDS011;11878;51.774;7.220;2023-02-22T16:39:47;19.47;;;8.87;;
23410;SDS011;11878;51.774;7.220;2023-02-22T16:42:51;22.83;;;8.53;;
23410;SDS011;11878;51.774;7.220;2023-02-22T16:45:53;20.93;;;9.03;;
23410;SDS011;11878;51.774;7.220;2023-02-22T16:48:55;16.93;;;8.00;;
23410;SDS011;11878;51.774;7.220;2023-02-22T16:52:04;15.87;;;7.03;;
23410;SDS011;11878;51.774;7.220;2023-02-22T16:55:08;12.37;;;6.50;;
23410;SDS011;11878;51.774;7.220;2023-02-22T16:58:11;16.40;;;6.80;;
23410;SDS011;11878;51.774;7.220;2023-02-22T17:01:15;12.17;;;4.97;;
23410;SDS011;11878;51.774;7.220;2023-02-22T17:04:19;15.03;;;5.80;;
23410;SDS011;11878;51.774;7.220;2023-02-22T17:07:24;11.03;;;6.07;;
23410;SDS011;11878;51.774;7.220;2023-02-22T17:10:31;18.77;;;5.90;;
23410;SDS011;11878;51.774;7.220;2023-02-22T17:13:33;12.97;;;5.97;;
23410;SDS011;11878;51.774;7.220;2023-02-22T17:16:35;11.60;;;5.87;;
23410;SDS011;11878;51.774;7.220;2023-02-22T17:19:37;15.47;;;6.57;;
23410;SDS011;11878;51.774;7.220;2023-02-22T17:22:39;13.57;;;6.97;;
23410;SDS011;11878;51.774;7.220;2023-02-22T17:28:56;13.17;;;6.23;;
23410;SDS011;11878;51.774;7.220;2023-02-22T17:31:57;11.40;;;6.40;;
23410;SDS011;11878;51.774;7.220;2023-02-22T17:34:59;14.60;;;6.90;;
23410;SDS011;11878;51.774;7.220;2023-02-22T17:38:01;13.30;;;6.90;;
23410;SDS011;11878;51.774;7.220;2023-02-22T17:41:06;12.63;;;7.40;;
23410;SDS011;11878;51.774;7.220;2023-02-22T17:44:08;15.27;;;7.93;;
23410;SDS011;11878;51.774;7.220;2023-02-22T17:47:10;17.20;;;7.57;;
23410;SDS011;11878;51.774;7.220;2023-02-22T17:50:12;20.00;;;7.70;;
23410;SDS011;11878;51.774;7.220;2023-02-22T17:53:15;24.70;;;7.73;;
23410;SDS011;11878;51.774;7.220;2023-02-22T17:56:21;18.57;;;9.27;;
23410;SDS011;11878;51.774;7.220;2023-02-22T17:59:23;41.27;;;19.20;;
23410;SDS011;11878;51.774;7.220;2023-02-22T18:02:25;18.90;;;11.73;;
23410;SDS011;11878;51.774;7.220;2023-02-22T18:05:27;20.67;;;10.97;;
23410;SDS011;11878;51.774;7.220;2023-02-22T18:08:30;22.33;;;9.57;;
23410;SDS011;11878;51.774;7.220;2023-02-22T18:11:32;15.33;;;8.57;;
23410;SDS011;11878;51.774;7.220;2023-02-22T18:14:34;18.67;;;8.70;;
23410;SDS011;11878;51.774;7.220;2023-02-22T18:17:36;16.93;;;8.33;;
23410;SDS011;11878;51.774;7.220;2023-02-22T18:20:41;23.13;;;11.03;;
23410;SDS011;11878;51.774;7.220;2023-02-22T18:23:51;26.40;;;11.53;;
23410;SDS011;11878;51.774;7.220;2023-02-22T18:26:54;24.70;;;11.87;;
23410;SDS011;11878;51.774;7.220;2023-02-22T18:29:56;27.77;;;12.73;;
23410;SDS011;11878;51.774;7.220;2023-02-22T18:32:58;23.53;;;11.20;;
23410;SDS011;11878;51.774;7.220;2023-02-22T18:36:00;20.13;;;11.20;;
23410;SDS011;11878;51.774;7.220;2023-02-22T18:39:02;20.40;;;11.53;;
23410;SDS011;11878;51.774;7.220;2023-02-22T18:42:04;29.53;;;12.73;;
23410;SDS011;11878;51.774;7.220;2023-02-22T18:45:06;22.30;;;11.27;;
23410;SDS011;11878;51.774;7.220;2023-02-22T18:48:08;19.40;;;10.03;;
23410;SDS011;11878;51.774;7.220;2023-02-22T18:51:11;20.77;;;11.33;;
23410;SDS011;11878;51.774;7.220;2023-02-22T18:54:14;25.70;;;12.03;;
23410;SDS011;11878;51.774;7.220;2023-02-22T18:57:16;24.87;;;12.17;;
23410;SDS011;11878;51.774;7.220;2023-02-22T19:00:18;20.57;;;12.07;;
23410;SDS011;11878;51.774;7.220;2023-02-22T19:03:28;28.73;;;14.37;;
23410;SDS011;11878;51.774;7.220;2023-02-22T19:06:32;26.93;;;12.13;;
23410;SDS011;11878;51.774;7.220;2023-02-22T19:09:36;25.80;;;12.07;;
23410;SDS011;11878;51.774;7.220;2023-02-22T19:12:38;26.00;;;12.00;;
23410;SDS011;11878;51.774;7.220;2023-02-22T19:15:40;22.40;;;11.00;;
23410;SDS011;11878;51.774;7.220;2023-02-22T19:18:42;29.13;;;14.47;;
23410;SDS011;11878;51.774;7.220;2023-02-22T19:21:44;23.90;;;12.43;;
23410;SDS011;11878;51.774;7.220;2023-02-22T19:24:47;24.43;;;14.27;;
23410;SDS011;11878;51.774;7.220;2023-02-22T19:27:54;22.83;;;13.33;;
23410;SDS011;11878;51.774;7.220;2023-02-22T19:31:09;25.83;;;13.53;;
23410;SDS011;11878;51.774;7.220;2023-02-22T19:34:12;29.57;;;16.50;;
23410;SDS011;11878;51.774;7.220;2023-02-22T19:37:15;35.73;;;18.23;;
23410;SDS011;11878;51.774;7.220;2023-02-22T19:40:22;34.33;;;19.00;;
23410;SDS011;11878;51.774;7.220;2023-02-22T19:43:25;31.63;;;18.47;;
23410;SDS011;11878;51.774;7.220;2023-02-22T19:46:27;38.27;;;19.03;;
23410;SDS011;11878;51.774;7.220;2023-02-22T19:49:28;35.97;;;19.23;;
23410;SDS011;11878;51.774;7.220;2023-02-22T19:52:30;33.27;;;19.30;;